sensor_id;sensor_type;location;lat;lon;timestamp;P1;durP1;ratioP1;P2;durP2;ratioP2
6737;SDS011;3406;49.902;8.596;2022-07-24T00:00:44;0.10;;;0.10;;
6737;SDS011;3406;49.902;8.596;2022-07-24T00:03:11;0.17;;;0.17;;
6737;SDS011;3406;49.902;8.596;2022-07-24T00:05:37;0.10;;;0.10;;
6737;SDS011;3406;49.902;8.596;2022-07-24T00:08:04;0.20;;;0.20;;
6737;SDS011;3406;49.902;8.596;2022-07-24T00:10:32;0.20;;;0.20;;
6737;SDS011;3406;49.902;8.596;2022-07-24T00:12:59;0.20;;;0.20;;
6737;SDS011;3406;49.902;8.596;2022-07-24T00:15:26;0.10;;;0.10;;
6737;SDS011;3406;49.902;8.596;2022-07-24T00:17:52;0.20;;;0.20;;
6737;SDS011;3406;49.902;8.596;2022-07-24T00:20:19;0.30;;;0.30;;
6737;SDS011;3406;49.902;8.596;2022-07-24T00:22:46;0.20;;;0.20;;
6737;SDS011;3406;49.902;8.596;2022-07-24T00:25:13;0.23;;;0.23;;
6737;SDS011;3406;49.902;8.596;2022-07-24T00:27:41;0.40;;;0.40;;
6737;SDS011;3406;49.902;8.596;2022-07-24T00:30:08;0.47;;;0.47;;
6737;SDS011;3406;49.902;8.596;2022-07-24T00:32:35;0.13;;;0.13;;
6737;SDS011;3406;49.902;8.596;2022-07-24T00:35:02;0.20;;;0.20;;
6737;SDS011;3406;49.902;8.596;2022-07-24T00:37:29;0.10;;;0.10;;
6737;SDS011;3406;49.902;8.596;2022-07-24T00:39:56;0.40;;;0.40;;
6737;SDS011;3406;49.902;8.596;2022-07-24T00:42:22;0.10;;;0.10;;
6737;SDS011;3406;49.902;8.596;2022-07-24T00:44:50;0.20;;;0.20;;
6737;SDS011;3406;49.902;8.596;2022-07-24T00:47:17;0.37;;;0.37;;
6737;SDS011;3406;49.902;8.596;2022-07-24T00:49:44;0.70;;;0.37;;
6737;SDS011;3406;49.902;8.596;2022-07-24T00:52:10;0.20;;;0.20;;
6737;SDS011;3406;49.902;8.596;2022-07-24T00:54:37;0.10;;;0.10;;
6737;SDS011;3406;49.902;8.596;2022-07-24T00:57:04;0.20;;;0.20;;
6737;SDS011;3406;49.902;8.596;2022-07-24T00:59:31;0.40;;;0.40;;
6737;SDS011;3406;49.902;8.596;2022-07-24T01:01:59;0.40;;;0.40;;
6737;SDS011;3406;49.902;8.596;2022-07-24T01:04:26;0.20;;;0.20;;
6737;SDS011;3406;49.902;8.596;2022-07-24T01:06:52;0.30;;;0.30;;
6737;SDS011;3406;49.902;8.596;2022-07-24T01:09:20;0.50;;;0.50;;
6737;SDS011;3406;49.902;8.596;2022-07-24T01:11:47;0.33;;;0.30;;
6737;SDS011;3406;49.902;8.596;2022-07-24T01:14:14;0.20;;;0.20;;
6737;SDS011;3406;49.902;8.596;2022-07-24T01:16:41;0.30;;;0.30;;
6737;SDS011;3406;49.902;8.596;2022-07-24T01:19:09;0.17;;;0.17;;
6737;SDS011;3406;49.902;8.596;2022-07-24T01:21:37;0.37;;;0.37;;
6737;SDS011;3406;49.902;8.596;2022-07-24T01:24:04;0.33;;;0.33;;
6737;SDS011;3406;49.902;8.596;2022-07-24T01:26:31;0.33;;;0.33;;
6737;SDS011;3406;49.902;8.596;2022-07-24T01:28:57;0.10;;;0.10;;
6737;SDS011;3406;49.902;8.596;2022-07-24T01:31:24;0.40;;;0.40;;
6737;SDS011;3406;49.902;8.596;2022-07-24T01:33:51;0.33;;;0.33;;
6737;SDS011;3406;49.902;8.596;2022-07-24T01:36:17;0.30;;;0.30;;
6737;SDS011;3406;49.902;8.596;2022-07-24T01:38:46;0.20;;;0.20;;
6737;SDS011;3406;49.902;8.596;2022-07-24T01:41:13;0.20;;;0.20;;
6737;SDS011;3406;49.902;8.596;2022-07-24T01:43:40;0.20;;;0.20;;
6737;SDS011;3406;49.902;8.596;2022-07-24T01:46:07;0.20;;;0.20;;
6737;SDS011;3406;49.902;8.596;2022-07-24T01:48:34;0.20;;;0.20;;
6737;SDS011;3406;49.902;8.596;2022-07-24T01:51:01;0.17;;;0.17;;
6737;SDS011;3406;49.902;8.596;2022-07-24T01:53:28;0.17;;;0.17;;
6737;SDS011;3406;49.902;8.596;2022-07-24T01:55:56;0.10;;;0.10;;
6737;SDS011;3406;49.902;8.596;2022-07-24T01:58:23;0.10;;;0.10;;
6737;SDS011;3406;49.902;8.596;2022-07-24T02:00:49;0.20;;;0.20;;
6737;SDS011;3406;49.902;8.596;2022-07-24T02:03:16;0.30;;;0.20;;
6737;SDS011;3406;49.902;8.596;2022-07-24T02:05:43;0.33;;;0.33;;
6737;SDS011;3406;49.902;8.596;2022-07-24T02:08:10;0.23;;;0.23;;
6737;SDS011;3406;49.902;8.596;2022-07-24T02:10:37;0.20;;;0.20;;
6737;SDS011;3406;49.902;8.596;2022-07-24T02:13:05;0.20;;;0.20;;
6737;SDS011;3406;49.902;8.596;2022-07-24T02:15:32;0.20;;;0.20;;
6737;SDS011;3406;49.902;8.596;2022-07-24T02:17:59;0.23;;;0.23;;
6737;SDS011;3406;49.902;8.596;2022-07-24T02:20:27;0.20;;;0.20;;
6737;SDS011;3406;49.902;8.596;2022-07-24T02:22:54;0.20;;;0.20;;
6737;SDS011;3406;49.902;8.596;2022-07-24T02:25:21;0.20;;;0.20;;
6737;SDS011;3406;49.902;8.596;2022-07-24T02:27:48;0.20;;;0.20;;
6737;SDS011;3406;49.902;8.596;2022-07-24T02:30:18;0.17;;;0.17;;
6737;SDS011;3406;49.902;8.596;2022-07-24T02:32:45;0.00;;;0.00;;
6737;SDS011;3406;49.902;8.596;2022-07-24T02:35:12;0.30;;;0.30;;
6737;SDS011;3406;49.902;8.596;2022-07-24T02:37:40;0.10;;;0.10;;
6737;SDS011;3406;49.902;8.596;2022-07-24T02:40:09;0.30;;;0.30;;
6737;SDS011;3406;49.902;8.596;2022-07-24T02:42:37;0.20;;;0.20;;
6737;SDS011;3406;49.902;8.596;2022-07-24T02:45:05;0.20;;;0.20;;
6737;SDS011;3406;49.902;8.596;2022-07-24T02:47:34;0.17;;;0.17;;
6737;SDS011;3406;49.902;8.596;2022-07-24T02:50:01;0.20;;;0.20;;
6737;SDS011;3406;49.902;8.596;2022-07-24T02:52:28;0.20;;;0.20;;
6737;SDS011;3406;49.902;8.596;2022-07-24T02:54:54;0.20;;;0.20;;
6737;SDS011;3406;49.902;8.596;2022-07-24T02:57:21;0.17;;;0.17;;
6737;SDS011;3406;49.902;8.596;2022-07-24T02:59:47;0.10;;;0.10;;
6737;SDS011;3406;49.902;8.596;2022-07-24T03:02:17;0.10;;;0.10;;
6737;SDS011;3406;49.902;8.596;2022-07-24T03:04:45;0.10;;;0.10;;
6737;SDS011;3406;49.902;8.596;2022-07-24T03:07:12;0.10;;;0.10;;
6737;SDS011;3406;49.902;8.596;2022-07-24T03:09:38;0.30;;;0.30;;
6737;SDS011;3406;49.902;8.596;2022-07-24T03:12:05;0.10;;;0.10;;
6737;SDS011;3406;49.902;8.596;2022-07-24T03:14:32;0.10;;;0.10;;
6737;SDS011;3406;49.902;8.596;2022-07-24T03:16:59;0.20;;;0.20;;
6737;SDS011;3406;49.902;8.596;2022-07-24T03:19:26;0.37;;;0.37;;
6737;SDS011;3406;49.902;8.596;2022-07-24T03:21:54;0.10;;;0.10;;
6737;SDS011;3406;49.902;8.596;2022-07-24T03:24:21;0.10;;;0.10;;
6737;SDS011;3406;49.902;8.596;2022-07-24T03:26:47;0.30;;;0.23;;
6737;SDS011;3406;49.902;8.596;2022-07-24T03:29:14;0.10;;;0.10;;
6737;SDS011;3406;49.902;8.596;2022-07-24T03:31:41;0.10;;;0.10;;
6737;SDS011;3406;49.902;8.596;2022-07-24T03:34:07;0.27;;;0.27;;
6737;SDS011;3406;49.902;8.596;2022-07-24T03:36:35;0.33;;;0.33;;
6737;SDS011;3406;49.902;8.596;2022-07-24T03:39:03;0.20;;;0.20;;
6737;SDS011;3406;49.902;8.596;2022-07-24T03:41:30;0.10;;;0.10;;
6737;SDS011;3406;49.902;8.596;2022-07-24T03:43:57;0.20;;;0.20;;
6737;SDS011;3406;49.902;8.596;2022-07-24T03:46:24;0.30;;;0.30;;
6737;SDS011;3406;49.902;8.596;2022-07-24T03:48:53;0.50;;;0.50;;
6737;SDS011;3406;49.902;8.596;2022-07-24T03:51:19;1.80;;;0.30;;
6737;SDS011;3406;49.902;8.596;2022-07-24T03:53:46;0.30;;;0.30;;
6737;SDS011;3406;49.902;8.596;2022-07-24T03:56:14;0.20;;;0.20;;
6737;SDS011;3406;49.902;8.596;2022-07-24T03:58:41;0.37;;;0.37;;
6737;SDS011;3406;49.902;8.596;2022-07-24T04:01:08;0.30;;;0.30;;
6737;SDS011;3406;49.902;8.596;2022-07-24T04:03:35;0.17;;;0.17;;
6737;SDS011;3406;49.902;8.596;2022-07-24T04:06:02;0.23;;;0.23;;
6737;SDS011;3406;49.902;8.596;2022-07-24T04:08:30;0.20;;;0.20;;
6737;SDS011;3406;49.902;8.596;2022-07-24T04:10:57;0.30;;;0.30;;
6737;SDS011;3406;49.902;8.596;2022-07-24T04:13:25;0.90;;;0.90;;
6737;SDS011;3406;49.902;8.596;2022-07-24T04:15:52;0.30;;;0.30;;
6737;SDS011;3406;49.902;8.596;2022-07-24T04:18:19;0.73;;;0.40;;
6737;SDS011;3406;49.902;8.596;2022-07-24T04:20:46;0.20;;;0.20;;
6737;SDS011;3406;49.902;8.596;2022-07-24T04:23:14;0.30;;;0.30;;
6737;SDS011;3406;49.902;8.596;2022-07-24T04:25:41;0.20;;;0.20;;
6737;SDS011;3406;49.902;8.596;2022-07-24T04:28:08;0.27;;;0.27;;
6737;SDS011;3406;49.902;8.596;2022-07-24T04:30:36;1.10;;;0.20;;
6737;SDS011;3406;49.902;8.596;2022-07-24T04:33:02;0.83;;;0.20;;
6737;SDS011;3406;49.902;8.596;2022-07-24T04:35:29;0.20;;;0.20;;
6737;SDS011;3406;49.902;8.596;2022-07-24T04:37:56;0.20;;;0.20;;
6737;SDS011;3406;49.902;8.596;2022-07-24T04:40:22;0.27;;;0.27;;
6737;SDS011;3406;49.902;8.596;2022-07-24T04:42:49;0.33;;;0.33;;
6737;SDS011;3406;49.902;8.596;2022-07-24T04:45:16;0.30;;;0.30;;
6737;SDS011;3406;49.902;8.596;2022-07-24T04:47:44;0.10;;;0.10;;
6737;SDS011;3406;49.902;8.596;2022-07-24T04:50:10;0.27;;;0.27;;
6737;SDS011;3406;49.902;8.596;2022-07-24T04:52:37;0.20;;;0.20;;
6737;SDS011;3406;49.902;8.596;2022-07-24T04:55:04;0.30;;;0.30;;
6737;SDS011;3406;49.902;8.596;2022-07-24T04:57:32;0.30;;;0.30;;
6737;SDS011;3406;49.902;8.596;2022-07-24T04:59:58;0.20;;;0.20;;
6737;SDS011;3406;49.902;8.596;2022-07-24T05:02:25;0.30;;;0.30;;
6737;SDS011;3406;49.902;8.596;2022-07-24T05:04:53;0.27;;;0.27;;
6737;SDS011;3406;49.902;8.596;2022-07-24T05:07:20;0.20;;;0.20;;
6737;SDS011;3406;49.902;8.596;2022-07-24T05:09:46;0.20;;;0.20;;
6737;SDS011;3406;49.902;8.596;2022-07-24T05:12:13;0.10;;;0.10;;
6737;SDS011;3406;49.902;8.596;2022-07-24T05:14:41;0.23;;;0.23;;
6737;SDS011;3406;49.902;8.596;2022-07-24T05:17:07;0.20;;;0.20;;
6737;SDS011;3406;49.902;8.596;2022-07-24T05:19:34;0.20;;;0.20;;
6737;SDS011;3406;49.902;8.596;2022-07-24T05:22:02;0.30;;;0.30;;
6737;SDS011;3406;49.902;8.596;2022-07-24T05:24:29;0.20;;;0.20;;
6737;SDS011;3406;49.902;8.596;2022-07-24T05:26:56;0.20;;;0.20;;
6737;SDS011;3406;49.902;8.596;2022-07-24T05:29:22;0.27;;;0.27;;
6737;SDS011;3406;49.902;8.596;2022-07-24T05:31:49;0.10;;;0.10;;
6737;SDS011;3406;49.902;8.596;2022-07-24T05:34:16;0.17;;;0.17;;
6737;SDS011;3406;49.902;8.596;2022-07-24T05:36:43;0.17;;;0.17;;
6737;SDS011;3406;49.902;8.596;2022-07-24T05:39:11;0.20;;;0.20;;
6737;SDS011;3406;49.902;8.596;2022-07-24T05:41:37;0.10;;;0.10;;
6737;SDS011;3406;49.902;8.596;2022-07-24T05:44:04;0.20;;;0.20;;
6737;SDS011;3406;49.902;8.596;2022-07-24T05:46:31;0.40;;;0.40;;
6737;SDS011;3406;49.902;8.596;2022-07-24T05:48:58;0.10;;;0.10;;
6737;SDS011;3406;49.902;8.596;2022-07-24T05:51:24;0.30;;;0.30;;
6737;SDS011;3406;49.902;8.596;2022-07-24T05:53:51;0.33;;;0.20;;
6737;SDS011;3406;49.902;8.596;2022-07-24T05:56:19;0.23;;;0.23;;
6737;SDS011;3406;49.902;8.596;2022-07-24T05:58:46;0.37;;;0.37;;
6737;SDS011;3406;49.902;8.596;2022-07-24T06:01:12;0.40;;;0.40;;
6737;SDS011;3406;49.902;8.596;2022-07-24T06:03:39;0.77;;;0.40;;
6737;SDS011;3406;49.902;8.596;2022-07-24T06:06:06;0.43;;;0.43;;
6737;SDS011;3406;49.902;8.596;2022-07-24T06:08:32;1.63;;;0.40;;
6737;SDS011;3406;49.902;8.596;2022-07-24T06:10:59;0.30;;;0.30;;
6737;SDS011;3406;49.902;8.596;2022-07-24T06:13:27;0.40;;;0.40;;
6737;SDS011;3406;49.902;8.596;2022-07-24T06:15:54;0.30;;;0.30;;
6737;SDS011;3406;49.902;8.596;2022-07-24T06:18:20;0.35;;;0.35;;
6737;SDS011;3406;49.902;8.596;2022-07-24T06:20:47;0.30;;;0.30;;
6737;SDS011;3406;49.902;8.596;2022-07-24T06:23:14;0.20;;;0.20;;
6737;SDS011;3406;49.902;8.596;2022-07-24T06:25:40;0.28;;;0.28;;
6737;SDS011;3406;49.902;8.596;2022-07-24T06:28:07;0.30;;;0.30;;
6737;SDS011;3406;49.902;8.596;2022-07-24T06:30:35;0.20;;;0.20;;
6737;SDS011;3406;49.902;8.596;2022-07-24T06:33:02;0.20;;;0.20;;
6737;SDS011;3406;49.902;8.596;2022-07-24T06:35:28;0.35;;;0.35;;
6737;SDS011;3406;49.902;8.596;2022-07-24T06:37:57;0.45;;;0.40;;
6737;SDS011;3406;49.902;8.596;2022-07-24T06:40:24;0.43;;;0.43;;
6737;SDS011;3406;49.902;8.596;2022-07-24T06:42:51;0.60;;;0.60;;
6737;SDS011;3406;49.902;8.596;2022-07-24T06:45:17;0.32;;;0.32;;
6737;SDS011;3406;49.902;8.596;2022-07-24T06:47:46;0.20;;;0.20;;
6737;SDS011;3406;49.902;8.596;2022-07-24T06:50:13;0.20;;;0.20;;
6737;SDS011;3406;49.902;8.596;2022-07-24T06:52:40;0.32;;;0.32;;
6737;SDS011;3406;49.902;8.596;2022-07-24T06:55:07;0.45;;;0.45;;
6737;SDS011;3406;49.902;8.596;2022-07-24T06:57:34;0.95;;;0.95;;
6737;SDS011;3406;49.902;8.596;2022-07-24T07:00:02;0.30;;;0.30;;
6737;SDS011;3406;49.902;8.596;2022-07-24T07:02:30;0.17;;;0.17;;
6737;SDS011;3406;49.902;8.596;2022-07-24T07:04:58;2.55;;;0.65;;
6737;SDS011;3406;49.902;8.596;2022-07-24T07:07:24;0.52;;;0.52;;
6737;SDS011;3406;49.902;8.596;2022-07-24T07:09:51;0.60;;;0.60;;
6737;SDS011;3406;49.902;8.596;2022-07-24T07:12:18;0.55;;;0.55;;
6737;SDS011;3406;49.902;8.596;2022-07-24T07:14:44;0.40;;;0.40;;
6737;SDS011;3406;49.902;8.596;2022-07-24T07:17:11;0.50;;;0.50;;
6737;SDS011;3406;49.902;8.596;2022-07-24T07:19:38;0.20;;;0.20;;
6737;SDS011;3406;49.902;8.596;2022-07-24T07:22:06;0.30;;;0.30;;
6737;SDS011;3406;49.902;8.596;2022-07-24T07:24:32;0.40;;;0.40;;
6737;SDS011;3406;49.902;8.596;2022-07-24T07:26:59;0.30;;;0.30;;
6737;SDS011;3406;49.902;8.596;2022-07-24T07:29:26;0.20;;;0.20;;
6737;SDS011;3406;49.902;8.596;2022-07-24T07:31:52;0.17;;;0.17;;
6737;SDS011;3406;49.902;8.596;2022-07-24T07:34:19;0.30;;;0.30;;
6737;SDS011;3406;49.902;8.596;2022-07-24T07:36:46;0.40;;;0.40;;
6737;SDS011;3406;49.902;8.596;2022-07-24T07:39:14;0.28;;;0.28;;
6737;SDS011;3406;49.902;8.596;2022-07-24T07:41:40;0.20;;;0.20;;
6737;SDS011;3406;49.902;8.596;2022-07-24T07:44:07;1.10;;;1.10;;
6737;SDS011;3406;49.902;8.596;2022-07-24T07:46:34;0.40;;;0.22;;
6737;SDS011;3406;49.902;8.596;2022-07-24T07:49:00;0.50;;;0.50;;
6737;SDS011;3406;49.902;8.596;2022-07-24T07:51:27;0.68;;;0.68;;
6737;SDS011;3406;49.902;8.596;2022-07-24T07:53:54;0.50;;;0.50;;
6737;SDS011;3406;49.902;8.596;2022-07-24T07:56:22;0.40;;;0.40;;
6737;SDS011;3406;49.902;8.596;2022-07-24T07:58:48;0.60;;;0.60;;
6737;SDS011;3406;49.902;8.596;2022-07-24T08:01:15;0.30;;;0.30;;
6737;SDS011;3406;49.902;8.596;2022-07-24T08:03:42;0.47;;;0.47;;
6737;SDS011;3406;49.902;8.596;2022-07-24T08:06:09;0.30;;;0.30;;
6737;SDS011;3406;49.902;8.596;2022-07-24T08:08:35;0.30;;;0.30;;
6737;SDS011;3406;49.902;8.596;2022-07-24T08:11:02;0.65;;;0.30;;
6737;SDS011;3406;49.902;8.596;2022-07-24T08:13:30;0.52;;;0.52;;
6737;SDS011;3406;49.902;8.596;2022-07-24T08:15:57;0.15;;;0.15;;
6737;SDS011;3406;49.902;8.596;2022-07-24T08:18:23;0.30;;;0.30;;
6737;SDS011;3406;49.902;8.596;2022-07-24T08:20:50;0.28;;;0.28;;
6737;SDS011;3406;49.902;8.596;2022-07-24T08:23:17;0.35;;;0.35;;
6737;SDS011;3406;49.902;8.596;2022-07-24T08:25:43;0.40;;;0.40;;
6737;SDS011;3406;49.902;8.596;2022-07-24T08:28:10;0.40;;;0.40;;
6737;SDS011;3406;49.902;8.596;2022-07-24T08:30:38;0.50;;;0.50;;
6737;SDS011;3406;49.902;8.596;2022-07-24T08:33:05;0.50;;;0.50;;
6737;SDS011;3406;49.902;8.596;2022-07-24T08:35:31;0.30;;;0.30;;
6737;SDS011;3406;49.902;8.596;2022-07-24T08:37:58;0.20;;;0.20;;
6737;SDS011;3406;49.902;8.596;2022-07-24T08:40:25;0.20;;;0.20;;
6737;SDS011;3406;49.902;8.596;2022-07-24T08:42:58;0.30;;;0.30;;
6737;SDS011;3406;49.902;8.596;2022-07-24T08:45:25;0.90;;;0.90;;
6737;SDS011;3406;49.902;8.596;2022-07-24T08:47:54;0.65;;;0.65;;
6737;SDS011;3406;49.902;8.596;2022-07-24T08:50:22;0.60;;;0.60;;
6737;SDS011;3406;49.902;8.596;2022-07-24T08:52:48;0.57;;;0.57;;
6737;SDS011;3406;49.902;8.596;2022-07-24T08:55:15;0.75;;;0.75;;
6737;SDS011;3406;49.902;8.596;2022-07-24T08:57:43;0.25;;;0.25;;
6737;SDS011;3406;49.902;8.596;2022-07-24T09:00:09;0.40;;;0.40;;
6737;SDS011;3406;49.902;8.596;2022-07-24T09:02:37;0.32;;;0.32;;
6737;SDS011;3406;49.902;8.596;2022-07-24T09:05:06;0.20;;;0.20;;
6737;SDS011;3406;49.902;8.596;2022-07-24T09:07:33;0.30;;;0.30;;
6737;SDS011;3406;49.902;8.596;2022-07-24T09:10:00;0.60;;;0.60;;
6737;SDS011;3406;49.902;8.596;2022-07-24T09:12:30;0.40;;;0.40;;
6737;SDS011;3406;49.902;8.596;2022-07-24T09:14:58;3.03;;;0.40;;
6737;SDS011;3406;49.902;8.596;2022-07-24T09:17:26;0.30;;;0.30;;
6737;SDS011;3406;49.902;8.596;2022-07-24T09:19:53;0.68;;;0.68;;
6737;SDS011;3406;49.902;8.596;2022-07-24T09:25:09;0.43;;;0.25;;
6737;SDS011;3406;49.902;8.596;2022-07-24T09:27:40;0.32;;;0.32;;
6737;SDS011;3406;49.902;8.596;2022-07-24T09:30:20;0.50;;;0.50;;
6737;SDS011;3406;49.902;8.596;2022-07-24T09:32:51;2.83;;;0.98;;
6737;SDS011;3406;49.902;8.596;2022-07-24T09:35:21;0.50;;;0.50;;
6737;SDS011;3406;49.902;8.596;2022-07-24T09:37:54;0.63;;;0.63;;
6737;SDS011;3406;49.902;8.596;2022-07-24T09:40:21;0.35;;;0.35;;
6737;SDS011;3406;49.902;8.596;2022-07-24T09:42:53;0.50;;;0.50;;
6737;SDS011;3406;49.902;8.596;2022-07-24T09:45:22;0.75;;;0.75;;
6737;SDS011;3406;49.902;8.596;2022-07-24T09:47:51;0.65;;;0.65;;
6737;SDS011;3406;49.902;8.596;2022-07-24T09:50:18;0.68;;;0.68;;
6737;SDS011;3406;49.902;8.596;2022-07-24T09:52:55;0.65;;;0.65;;
6737;SDS011;3406;49.902;8.596;2022-07-24T09:55:23;0.52;;;0.52;;
6737;SDS011;3406;49.902;8.596;2022-07-24T09:57:51;0.35;;;0.35;;
6737;SDS011;3406;49.902;8.596;2022-07-24T10:00:18;0.65;;;0.65;;
6737;SDS011;3406;49.902;8.596;2022-07-24T10:02:45;0.50;;;0.50;;
6737;SDS011;3406;49.902;8.596;2022-07-24T10:05:13;0.75;;;0.75;;
6737;SDS011;3406;49.902;8.596;2022-07-24T10:07:41;0.40;;;0.40;;
6737;SDS011;3406;49.902;8.596;2022-07-24T10:10:10;1.38;;;0.47;;
6737;SDS011;3406;49.902;8.596;2022-07-24T10:12:38;1.00;;;0.63;;
6737;SDS011;3406;49.902;8.596;2022-07-24T10:15:06;0.65;;;0.65;;
6737;SDS011;3406;49.902;8.596;2022-07-24T10:17:40;0.40;;;0.40;;
6737;SDS011;3406;49.902;8.596;2022-07-24T10:20:32;0.70;;;0.70;;
6737;SDS011;3406;49.902;8.596;2022-07-24T10:23:05;0.52;;;0.52;;
6737;SDS011;3406;49.902;8.596;2022-07-24T10:25:38;0.17;;;0.17;;
6737;SDS011;3406;49.902;8.596;2022-07-24T10:28:28;0.52;;;0.45;;
6737;SDS011;3406;49.902;8.596;2022-07-24T10:31:03;0.77;;;0.77;;
6737;SDS011;3406;49.902;8.596;2022-07-24T10:33:31;0.55;;;0.55;;
6737;SDS011;3406;49.902;8.596;2022-07-24T10:36:00;0.28;;;0.28;;
6737;SDS011;3406;49.902;8.596;2022-07-24T10:38:32;0.35;;;0.35;;
6737;SDS011;3406;49.902;8.596;2022-07-24T10:41:05;0.50;;;0.50;;
6737;SDS011;3406;49.902;8.596;2022-07-24T10:43:39;0.47;;;0.47;;
6737;SDS011;3406;49.902;8.596;2022-07-24T10:46:09;0.80;;;0.80;;
6737;SDS011;3406;49.902;8.596;2022-07-24T10:48:37;0.88;;;0.88;;
6737;SDS011;3406;49.902;8.596;2022-07-24T10:51:06;1.10;;;1.10;;
6737;SDS011;3406;49.902;8.596;2022-07-24T10:53:49;1.23;;;1.13;;
6737;SDS011;3406;49.902;8.596;2022-07-24T10:56:23;0.60;;;0.60;;
6737;SDS011;3406;49.902;8.596;2022-07-24T10:59:02;0.70;;;0.70;;
6737;SDS011;3406;49.902;8.596;2022-07-24T11:01:33;0.60;;;0.60;;
6737;SDS011;3406;49.902;8.596;2022-07-24T11:04:03;0.73;;;0.73;;
6737;SDS011;3406;49.902;8.596;2022-07-24T11:06:50;0.65;;;0.65;;
6737;SDS011;3406;49.902;8.596;2022-07-24T11:09:19;0.68;;;0.68;;
6737;SDS011;3406;49.902;8.596;2022-07-24T11:14:46;4.03;;;0.65;;
6737;SDS011;3406;49.902;8.596;2022-07-24T11:20:03;0.77;;;0.77;;
6737;SDS011;3406;49.902;8.596;2022-07-24T11:22:39;0.55;;;0.50;;
6737;SDS011;3406;49.902;8.596;2022-07-24T11:25:09;1.17;;;0.90;;
6737;SDS011;3406;49.902;8.596;2022-07-24T11:27:47;0.68;;;0.68;;
6737;SDS011;3406;49.902;8.596;2022-07-24T11:30:21;0.60;;;0.60;;
6737;SDS011;3406;49.902;8.596;2022-07-24T11:32:48;0.90;;;0.90;;
6737;SDS011;3406;49.902;8.596;2022-07-24T11:35:15;0.80;;;0.70;;
6737;SDS011;3406;49.902;8.596;2022-07-24T11:37:42;0.70;;;0.70;;
6737;SDS011;3406;49.902;8.596;2022-07-24T11:40:14;0.60;;;0.60;;
6737;SDS011;3406;49.902;8.596;2022-07-24T11:42:41;1.20;;;1.20;;
6737;SDS011;3406;49.902;8.596;2022-07-24T11:45:10;1.35;;;1.27;;
6737;SDS011;3406;49.902;8.596;2022-07-24T11:47:37;0.80;;;0.80;;
6737;SDS011;3406;49.902;8.596;2022-07-24T11:50:05;0.68;;;0.68;;
6737;SDS011;3406;49.902;8.596;2022-07-24T11:52:34;0.93;;;0.93;;
6737;SDS011;3406;49.902;8.596;2022-07-24T11:55:04;0.75;;;0.75;;
6737;SDS011;3406;49.902;8.596;2022-07-24T11:57:33;1.25;;;1.25;;
6737;SDS011;3406;49.902;8.596;2022-07-24T12:00:01;0.75;;;0.75;;
6737;SDS011;3406;49.902;8.596;2022-07-24T12:02:31;0.82;;;0.82;;
6737;SDS011;3406;49.902;8.596;2022-07-24T12:04:58;0.75;;;0.75;;
6737;SDS011;3406;49.902;8.596;2022-07-24T12:07:25;0.50;;;0.50;;
6737;SDS011;3406;49.902;8.596;2022-07-24T12:09:54;0.60;;;0.60;;
6737;SDS011;3406;49.902;8.596;2022-07-24T12:12:23;0.65;;;0.65;;
6737;SDS011;3406;49.902;8.596;2022-07-24T12:14:52;0.85;;;0.85;;
6737;SDS011;3406;49.902;8.596;2022-07-24T12:17:25;0.65;;;0.65;;
6737;SDS011;3406;49.902;8.596;2022-07-24T12:19:56;0.75;;;0.75;;
6737;SDS011;3406;49.902;8.596;2022-07-24T12:22:24;0.70;;;0.70;;
6737;SDS011;3406;49.902;8.596;2022-07-24T12:24:53;0.65;;;0.65;;
6737;SDS011;3406;49.902;8.596;2022-07-24T12:27:37;0.77;;;0.77;;
6737;SDS011;3406;49.902;8.596;2022-07-24T12:30:26;0.60;;;0.60;;
6737;SDS011;3406;49.902;8.596;2022-07-24T12:33:03;0.65;;;0.65;;
6737;SDS011;3406;49.902;8.596;2022-07-24T12:35:33;0.55;;;0.55;;
6737;SDS011;3406;49.902;8.596;2022-07-24T12:38:22;1.05;;;1.00;;
6737;SDS011;3406;49.902;8.596;2022-07-24T12:40:49;1.92;;;0.70;;
6737;SDS011;3406;49.902;8.596;2022-07-24T12:43:16;0.60;;;0.60;;
6737;SDS011;3406;49.902;8.596;2022-07-24T12:45:43;0.65;;;0.65;;
6737;SDS011;3406;49.902;8.596;2022-07-24T12:48:12;0.88;;;0.88;;
6737;SDS011;3406;49.902;8.596;2022-07-24T12:51:01;0.50;;;0.50;;
6737;SDS011;3406;49.902;8.596;2022-07-24T12:53:30;0.63;;;0.63;;
6737;SDS011;3406;49.902;8.596;2022-07-24T12:56:02;0.80;;;0.80;;
6737;SDS011;3406;49.902;8.596;2022-07-24T13:01:20;1.40;;;0.85;;
6737;SDS011;3406;49.902;8.596;2022-07-24T13:03:52;0.52;;;0.52;;
6737;SDS011;3406;49.902;8.596;2022-07-24T13:06:31;1.15;;;1.15;;
6737;SDS011;3406;49.902;8.596;2022-07-24T13:09:02;0.55;;;0.55;;
6737;SDS011;3406;49.902;8.596;2022-07-24T13:11:29;1.17;;;1.10;;
6737;SDS011;3406;49.902;8.596;2022-07-24T13:13:56;0.70;;;0.70;;
6737;SDS011;3406;49.902;8.596;2022-07-24T13:16:25;1.25;;;1.25;;
6737;SDS011;3406;49.902;8.596;2022-07-24T13:18:53;0.93;;;0.93;;
6737;SDS011;3406;49.902;8.596;2022-07-24T13:21:19;0.38;;;0.38;;
6737;SDS011;3406;49.902;8.596;2022-07-24T13:23:47;0.40;;;0.40;;
6737;SDS011;3406;49.902;8.596;2022-07-24T13:26:14;0.85;;;0.85;;
6737;SDS011;3406;49.902;8.596;2022-07-24T13:28:41;0.93;;;0.93;;
6737;SDS011;3406;49.902;8.596;2022-07-24T13:31:07;0.73;;;0.73;;
6737;SDS011;3406;49.902;8.596;2022-07-24T13:33:34;0.60;;;0.60;;
6737;SDS011;3406;49.902;8.596;2022-07-24T13:36:01;0.90;;;0.90;;
6737;SDS011;3406;49.902;8.596;2022-07-24T13:38:28;0.70;;;0.70;;
6737;SDS011;3406;49.902;8.596;2022-07-24T13:40:56;1.00;;;1.00;;
6737;SDS011;3406;49.902;8.596;2022-07-24T13:43:22;0.95;;;0.88;;
6737;SDS011;3406;49.902;8.596;2022-07-24T13:45:50;0.80;;;0.55;;
6737;SDS011;3406;49.902;8.596;2022-07-24T13:48:17;0.60;;;0.60;;
6737;SDS011;3406;49.902;8.596;2022-07-24T13:50:44;1.30;;;1.20;;
6737;SDS011;3406;49.902;8.596;2022-07-24T13:53:11;0.50;;;0.50;;
6737;SDS011;3406;49.902;8.596;2022-07-24T13:55:37;1.17;;;0.60;;
6737;SDS011;3406;49.902;8.596;2022-07-24T13:58:05;0.35;;;0.35;;
6737;SDS011;3406;49.902;8.596;2022-07-24T14:00:32;0.65;;;0.65;;
6737;SDS011;3406;49.902;8.596;2022-07-24T14:02:59;0.40;;;0.40;;
6737;SDS011;3406;49.902;8.596;2022-07-24T14:05:25;0.50;;;0.50;;
6737;SDS011;3406;49.902;8.596;2022-07-24T14:07:52;0.45;;;0.45;;
6737;SDS011;3406;49.902;8.596;2022-07-24T14:10:20;0.52;;;0.52;;
6737;SDS011;3406;49.902;8.596;2022-07-24T14:12:47;0.90;;;0.90;;
6737;SDS011;3406;49.902;8.596;2022-07-24T14:15:16;0.90;;;0.90;;
6737;SDS011;3406;49.902;8.596;2022-07-24T14:17:43;0.35;;;0.35;;
6737;SDS011;3406;49.902;8.596;2022-07-24T14:20:11;0.60;;;0.60;;
6737;SDS011;3406;49.902;8.596;2022-07-24T14:22:39;1.20;;;1.13;;
6737;SDS011;3406;49.902;8.596;2022-07-24T14:25:07;0.77;;;0.77;;
6737;SDS011;3406;49.902;8.596;2022-07-24T14:27:35;0.50;;;0.50;;
6737;SDS011;3406;49.902;8.596;2022-07-24T14:30:02;1.23;;;0.80;;
6737;SDS011;3406;49.902;8.596;2022-07-24T14:32:31;1.08;;;1.08;;
6737;SDS011;3406;49.902;8.596;2022-07-24T14:34:58;0.55;;;0.40;;
6737;SDS011;3406;49.902;8.596;2022-07-24T14:37:25;1.27;;;1.17;;
6737;SDS011;3406;49.902;8.596;2022-07-24T14:39:51;1.23;;;1.13;;
6737;SDS011;3406;49.902;8.596;2022-07-24T14:42:18;0.75;;;0.50;;
6737;SDS011;3406;49.902;8.596;2022-07-24T14:44:45;0.45;;;0.45;;
6737;SDS011;3406;49.902;8.596;2022-07-24T14:47:11;0.50;;;0.50;;
6737;SDS011;3406;49.902;8.596;2022-07-24T14:49:39;1.33;;;1.23;;
6737;SDS011;3406;49.902;8.596;2022-07-24T14:52:06;1.10;;;1.10;;
6737;SDS011;3406;49.902;8.596;2022-07-24T14:54:32;0.57;;;0.57;;
6737;SDS011;3406;49.902;8.596;2022-07-24T14:56:59;0.82;;;0.80;;
6737;SDS011;3406;49.902;8.596;2022-07-24T14:59:26;1.67;;;0.45;;
6737;SDS011;3406;49.902;8.596;2022-07-24T15:01:53;0.57;;;0.57;;
6737;SDS011;3406;49.902;8.596;2022-07-24T15:04:20;1.05;;;1.05;;
6737;SDS011;3406;49.902;8.596;2022-07-24T15:06:48;0.50;;;0.50;;
6737;SDS011;3406;49.902;8.596;2022-07-24T15:09:14;0.55;;;0.55;;
6737;SDS011;3406;49.902;8.596;2022-07-24T15:11:41;1.20;;;1.10;;
6737;SDS011;3406;49.902;8.596;2022-07-24T15:14:08;1.00;;;1.00;;
6737;SDS011;3406;49.902;8.596;2022-07-24T15:16:35;0.60;;;0.60;;
6737;SDS011;3406;49.902;8.596;2022-07-24T15:19:01;1.25;;;1.15;;
6737;SDS011;3406;49.902;8.596;2022-07-24T15:21:28;1.15;;;1.05;;
6737;SDS011;3406;49.902;8.596;2022-07-24T15:23:56;0.70;;;0.70;;
6737;SDS011;3406;49.902;8.596;2022-07-24T15:26:23;0.70;;;0.70;;
6737;SDS011;3406;49.902;8.596;2022-07-24T15:28:50;0.70;;;0.70;;
6737;SDS011;3406;49.902;8.596;2022-07-24T15:31:16;0.90;;;0.90;;